Terminal Aerodrome Forecast
Issued by NWS

Home | Current Version | Previous Version | Text Only | Print | Product List | Glossary On
Versions: 1 2 3 4 5 6 7 8 9 10 11 12 13 14 15 16 17 18 19
068
FTUS45 KRIW 262336
TAFRKS
TAF
KRKS 262336Z 2700/2724 33008KT P6SM SCT060 BKN090
     FM270300 35010KT P6SM VCSH SCT035 BKN050
     FM270900 VRB06KT P6SM SCT040 BKN070
     FM271900 29014G22KT P6SM VCSH SCT050 BKN090=

USA.gov is the U.S. government's official web portal to all federal, state and local government web resources and services.